Wautoma, WI

6:02 PM CST on December 20, 2014 (GMT -0600)
RAWS WAUTOMA WI US | Change Station
CLOSE
Current Station
Personal Weather Station
Location: Wautoma, WI
Elevation: 856 ft
Nearby Weather Stations

Elev 856 ft 44.06 °N, 89.29 °W | Updated 50 minutes ago

Overcast
Overcast
28.0 °F
Feels Like 28.0 °F
N
0.0
Wind Variable Wind from North
Gusts 4.0 mph

Today
High -- | Low -- °F
--% Chance of Precip.
Yesterday
High -- | Low -- °F
Precip. -- in
7:28 AM 4:21 PM
Waning Crescent, 1% visible
Pressure 30.22 in
Visibility 8.0 miles
Clouds Mostly Cloudy 2000 ft
Overcast 3600 ft
Dew Point 28.0 °F
Humidity 100%
Rainfall 0.00 in
Snow Depth Not available.
UV 0 out of 12
Pollen .10 out of 12
Air Quality Not available.
Flu Activity Not available.
METAR KY50 202356Z AUTO 13003KT 8SM BKN020 OVC036 M01/M03 A3022 RMK AO2

More Conditions Fewer Conditions

Pressure 30.22 in
Visibility 8.0 miles
Clouds Mostly Cloudy 2000 ft
Overcast 3600 ft
Dew Point 28.0 °F
Humidity 100%
Rainfall 0.00 in
Snow Depth Not available.
UV 0 out of 12
Pollen .10 out of 12
Air Quality Not available.
Flu Activity Not available.
METAR KY50 202356Z AUTO 13003KT 8SM BKN020 OVC036 M01/M03 A3022 RMK AO2

More Conditions Fewer Conditions

10-Day Weather Forecast

Almanac

Astronomy

Dec. 20, 2014 Rise Set
Actual Time
Civil Twilight
Nautical Twilight
Astronomical Twilight
Moon
Length of Visible Light
Length of Day
Tomorrow will be .
, % of the Moon is Illuminated

Today's Extremes

State Highs State Lows

Community

WunderPhotos

Upload Photos

1,779,320 photos uploaded!

WunderBlogs® & News

Nearby

Air Quality

  Air Quality AQ Index Pollutant
Not available.

Snow Depth

Station Depth Elevation

Earthquake Activity

City Distance Mag. Time & Date
Minimum magnitude displayed is 2.5.

Coastal Water Temperatures

Place Temperature

Nearby Weather Stations